sensor_id;sensor_type;location;lat;lon;timestamp;P1;durP1;ratioP1;P2;durP2;ratioP2
70414;SDS011;57837;52.064;113.478;2023-01-05T00:02:22;191.35;;;78.70;;
70414;SDS011;57837;52.064;113.478;2023-01-05T00:05:26;135.03;;;64.03;;
70414;SDS011;57837;52.064;113.478;2023-01-05T00:08:29;69.85;;;32.70;;
70414;SDS011;57837;52.064;113.478;2023-01-05T00:11:39;98.65;;;53.92;;
70414;SDS011;57837;52.064;113.478;2023-01-05T00:15:00;67.60;;;37.00;;
70414;SDS011;57837;52.064;113.478;2023-01-05T00:18:21;102.90;;;37.35;;
70414;SDS011;57837;52.064;113.478;2023-01-05T00:21:43;124.07;;;54.33;;
70414;SDS011;57837;52.064;113.478;2023-01-05T00:25:08;106.85;;;50.45;;
70414;SDS011;57837;52.064;113.478;2023-01-05T00:28:14;164.52;;;71.38;;
70414;SDS011;57837;52.064;113.478;2023-01-05T00:31:17;141.35;;;56.97;;
70414;SDS011;57837;52.064;113.478;2023-01-05T00:34:21;106.43;;;46.10;;
70414;SDS011;57837;52.064;113.478;2023-01-05T00:37:26;77.40;;;35.77;;
70414;SDS011;57837;52.064;113.478;2023-01-05T00:40:33;102.63;;;32.90;;
70414;SDS011;57837;52.064;113.478;2023-01-05T00:43:37;97.18;;;45.80;;
70414;SDS011;57837;52.064;113.478;2023-01-05T00:46:40;73.10;;;34.63;;
70414;SDS011;57837;52.064;113.478;2023-01-05T00:50:01;230.63;;;89.97;;
70414;SDS011;57837;52.064;113.478;2023-01-05T00:53:05;275.17;;;102.88;;
70414;SDS011;57837;52.064;113.478;2023-01-05T00:56:09;153.05;;;59.88;;
70414;SDS011;57837;52.064;113.478;2023-01-05T00:59:15;130.73;;;51.53;;
70414;SDS011;57837;52.064;113.478;2023-01-05T01:02:37;129.88;;;60.20;;
70414;SDS011;57837;52.064;113.478;2023-01-05T01:05:41;73.47;;;36.95;;
70414;SDS011;57837;52.064;113.478;2023-01-05T01:08:44;39.73;;;27.60;;
70414;SDS011;57837;52.064;113.478;2023-01-05T01:11:47;234.18;;;93.95;;
70414;SDS011;57837;52.064;113.478;2023-01-05T01:14:50;181.82;;;87.28;;
70414;SDS011;57837;52.064;113.478;2023-01-05T01:17:53;154.97;;;81.20;;
70414;SDS011;57837;52.064;113.478;2023-01-05T01:20:57;174.32;;;69.22;;
70414;SDS011;57837;52.064;113.478;2023-01-05T01:24:00;173.70;;;76.30;;
70414;SDS011;57837;52.064;113.478;2023-01-05T01:27:03;151.32;;;59.67;;
70414;SDS011;57837;52.064;113.478;2023-01-05T01:30:07;78.45;;;43.58;;
70414;SDS011;57837;52.064;113.478;2023-01-05T01:33:30;151.98;;;55.35;;
70414;SDS011;57837;52.064;113.478;2023-01-05T01:36:33;132.13;;;57.42;;
70414;SDS011;57837;52.064;113.478;2023-01-05T01:39:37;135.27;;;53.20;;
70414;SDS011;57837;52.064;113.478;2023-01-05T01:42:44;154.77;;;61.83;;
70414;SDS011;57837;52.064;113.478;2023-01-05T01:45:47;89.05;;;44.17;;
70414;SDS011;57837;52.064;113.478;2023-01-05T01:49:01;209.77;;;92.00;;
70414;SDS011;57837;52.064;113.478;2023-01-05T01:52:12;104.10;;;54.30;;
70414;SDS011;57837;52.064;113.478;2023-01-05T01:55:15;122.03;;;52.95;;
70414;SDS011;57837;52.064;113.478;2023-01-05T01:58:20;97.03;;;39.47;;
70414;SDS011;57837;52.064;113.478;2023-01-05T02:01:28;92.32;;;45.42;;
70414;SDS011;57837;52.064;113.478;2023-01-05T02:04:32;141.57;;;57.08;;
70414;SDS011;57837;52.064;113.478;2023-01-05T02:07:42;83.57;;;44.25;;
70414;SDS011;57837;52.064;113.478;2023-01-05T02:24:41;63.67;;;31.92;;
70414;SDS011;57837;52.064;113.478;2023-01-05T02:31:25;112.65;;;47.65;;
70414;SDS011;57837;52.064;113.478;2023-01-05T02:38:10;119.18;;;40.92;;
70414;SDS011;57837;52.064;113.478;2023-01-05T02:41:34;140.88;;;58.15;;
70414;SDS011;57837;52.064;113.478;2023-01-05T02:45:04;68.57;;;41.37;;
70414;SDS011;57837;52.064;113.478;2023-01-05T02:48:12;93.13;;;38.00;;
70414;SDS011;57837;52.064;113.478;2023-01-05T02:51:18;73.53;;;33.00;;
70414;SDS011;57837;52.064;113.478;2023-01-05T02:54:49;47.63;;;28.83;;
70414;SDS011;57837;52.064;113.478;2023-01-05T02:58:31;42.97;;;22.52;;
70414;SDS011;57837;52.064;113.478;2023-01-05T03:01:58;44.88;;;20.77;;
70414;SDS011;57837;52.064;113.478;2023-01-05T03:05:11;53.50;;;24.60;;
70414;SDS011;57837;52.064;113.478;2023-01-05T03:08:19;86.20;;;35.00;;
70414;SDS011;57837;52.064;113.478;2023-01-05T03:12:20;64.75;;;33.28;;
70414;SDS011;57837;52.064;113.478;2023-01-05T03:15:44;51.10;;;22.42;;
70414;SDS011;57837;52.064;113.478;2023-01-05T03:18:49;37.90;;;17.57;;
70414;SDS011;57837;52.064;113.478;2023-01-05T03:22:18;79.72;;;32.88;;
70414;SDS011;57837;52.064;113.478;2023-01-05T03:25:44;34.72;;;13.98;;
70414;SDS011;57837;52.064;113.478;2023-01-05T03:29:08;25.03;;;16.47;;
70414;SDS011;57837;52.064;113.478;2023-01-05T03:32:31;50.20;;;21.95;;
70414;SDS011;57837;52.064;113.478;2023-01-05T03:35:59;52.28;;;21.48;;
70414;SDS011;57837;52.064;113.478;2023-01-05T03:39:06;44.85;;;18.15;;
70414;SDS011;57837;52.064;113.478;2023-01-05T03:42:13;46.65;;;18.88;;
70414;SDS011;57837;52.064;113.478;2023-01-05T03:45:17;39.55;;;14.57;;
70414;SDS011;57837;52.064;113.478;2023-01-05T03:48:23;17.83;;;10.88;;
70414;SDS011;57837;52.064;113.478;2023-01-05T03:51:28;20.80;;;13.63;;
70414;SDS011;57837;52.064;113.478;2023-01-05T03:54:35;23.38;;;12.93;;
70414;SDS011;57837;52.064;113.478;2023-01-05T03:57:38;21.67;;;9.32;;
70414;SDS011;57837;52.064;113.478;2023-01-05T04:00:42;32.37;;;15.70;;
70414;SDS011;57837;52.064;113.478;2023-01-05T04:03:48;29.10;;;17.05;;
70414;SDS011;57837;52.064;113.478;2023-01-05T04:06:52;32.40;;;9.65;;
70414;SDS011;57837;52.064;113.478;2023-01-05T04:09:57;36.10;;;13.18;;
70414;SDS011;57837;52.064;113.478;2023-01-05T04:13:03;15.32;;;10.75;;
70414;SDS011;57837;52.064;113.478;2023-01-05T04:16:07;34.22;;;8.40;;
70414;SDS011;57837;52.064;113.478;2023-01-05T04:19:32;43.20;;;21.88;;
70414;SDS011;57837;52.064;113.478;2023-01-05T04:22:36;46.53;;;16.63;;
70414;SDS011;57837;52.064;113.478;2023-01-05T04:25:41;45.10;;;19.05;;
70414;SDS011;57837;52.064;113.478;2023-01-05T04:28:49;38.30;;;17.05;;
70414;SDS011;57837;52.064;113.478;2023-01-05T04:31:57;50.27;;;22.60;;
70414;SDS011;57837;52.064;113.478;2023-01-05T04:35:00;46.83;;;20.00;;
70414;SDS011;57837;52.064;113.478;2023-01-05T04:38:14;28.23;;;16.80;;
70414;SDS011;57837;52.064;113.478;2023-01-05T04:41:17;70.93;;;26.40;;
70414;SDS011;57837;52.064;113.478;2023-01-05T04:44:25;61.42;;;25.25;;
70414;SDS011;57837;52.064;113.478;2023-01-05T04:47:46;48.40;;;18.85;;
70414;SDS011;57837;52.064;113.478;2023-01-05T04:50:53;27.00;;;10.40;;
70414;SDS011;57837;52.064;113.478;2023-01-05T04:54:03;63.33;;;17.30;;
70414;SDS011;57837;52.064;113.478;2023-01-05T04:57:07;47.63;;;13.95;;
70414;SDS011;57837;52.064;113.478;2023-01-05T05:00:12;13.05;;;8.38;;
70414;SDS011;57837;52.064;113.478;2023-01-05T05:03:17;22.37;;;8.93;;
70414;SDS011;57837;52.064;113.478;2023-01-05T05:06:22;29.70;;;20.00;;
70414;SDS011;57837;52.064;113.478;2023-01-05T05:09:28;17.77;;;13.82;;
70414;SDS011;57837;52.064;113.478;2023-01-05T05:12:33;28.98;;;13.55;;
70414;SDS011;57837;52.064;113.478;2023-01-05T05:59:55;89.50;;;24.37;;
70414;SDS011;57837;52.064;113.478;2023-01-05T06:02:59;46.30;;;21.98;;
70414;SDS011;57837;52.064;113.478;2023-01-05T06:06:03;22.67;;;7.95;;
70414;SDS011;57837;52.064;113.478;2023-01-05T06:09:06;46.78;;;17.63;;
70414;SDS011;57837;52.064;113.478;2023-01-05T06:12:10;41.45;;;13.52;;
70414;SDS011;57837;52.064;113.478;2023-01-05T06:15:14;65.63;;;31.85;;
70414;SDS011;57837;52.064;113.478;2023-01-05T06:18:18;62.80;;;26.70;;
70414;SDS011;57837;52.064;113.478;2023-01-05T06:21:23;68.43;;;28.38;;
70414;SDS011;57837;52.064;113.478;2023-01-05T06:24:27;62.92;;;26.17;;
70414;SDS011;57837;52.064;113.478;2023-01-05T06:27:31;18.07;;;12.33;;
70414;SDS011;57837;52.064;113.478;2023-01-05T06:30:34;15.20;;;10.77;;
70414;SDS011;57837;52.064;113.478;2023-01-05T06:33:57;57.53;;;23.65;;
70414;SDS011;57837;52.064;113.478;2023-01-05T06:37:01;32.38;;;18.55;;
70414;SDS011;57837;52.064;113.478;2023-01-05T06:40:04;99.43;;;36.70;;
70414;SDS011;57837;52.064;113.478;2023-01-05T06:43:10;148.88;;;51.70;;
70414;SDS011;57837;52.064;113.478;2023-01-05T06:46:14;137.43;;;40.03;;
70414;SDS011;57837;52.064;113.478;2023-01-05T06:49:17;19.27;;;9.63;;
70414;SDS011;57837;52.064;113.478;2023-01-05T06:52:22;87.60;;;29.92;;
70414;SDS011;57837;52.064;113.478;2023-01-05T06:55:26;84.90;;;31.63;;
70414;SDS011;57837;52.064;113.478;2023-01-05T07:02:50;79.28;;;31.92;;
70414;SDS011;57837;52.064;113.478;2023-01-05T07:06:13;59.90;;;23.48;;
70414;SDS011;57837;52.064;113.478;2023-01-05T07:09:17;60.22;;;31.40;;
70414;SDS011;57837;52.064;113.478;2023-01-05T07:12:21;90.50;;;42.10;;
70414;SDS011;57837;52.064;113.478;2023-01-05T07:15:25;48.35;;;22.42;;
70414;SDS011;57837;52.064;113.478;2023-01-05T07:18:29;109.53;;;48.15;;
70414;SDS011;57837;52.064;113.478;2023-01-05T07:21:31;110.80;;;48.17;;
70414;SDS011;57837;52.064;113.478;2023-01-05T07:24:35;27.35;;;14.15;;
70414;SDS011;57837;52.064;113.478;2023-01-05T07:27:38;74.55;;;26.25;;
70414;SDS011;57837;52.064;113.478;2023-01-05T07:30:42;112.37;;;48.83;;
70414;SDS011;57837;52.064;113.478;2023-01-05T07:33:45;161.10;;;54.83;;
70414;SDS011;57837;52.064;113.478;2023-01-05T07:36:48;133.80;;;55.60;;
70414;SDS011;57837;52.064;113.478;2023-01-05T07:39:52;138.65;;;50.90;;
70414;SDS011;57837;52.064;113.478;2023-01-05T07:42:55;25.05;;;14.73;;
70414;SDS011;57837;52.064;113.478;2023-01-05T07:45:58;59.92;;;30.58;;
70414;SDS011;57837;52.064;113.478;2023-01-05T07:49:02;114.93;;;38.88;;
70414;SDS011;57837;52.064;113.478;2023-01-05T07:52:05;95.00;;;37.17;;
70414;SDS011;57837;52.064;113.478;2023-01-05T07:55:08;66.90;;;35.35;;
70414;SDS011;57837;52.064;113.478;2023-01-05T07:58:11;52.25;;;28.35;;
70414;SDS011;57837;52.064;113.478;2023-01-05T08:01:14;53.97;;;27.93;;
70414;SDS011;57837;52.064;113.478;2023-01-05T08:04:19;73.65;;;34.45;;
70414;SDS011;57837;52.064;113.478;2023-01-05T08:07:23;77.35;;;36.30;;
70414;SDS011;57837;52.064;113.478;2023-01-05T08:10:26;43.10;;;17.98;;
70414;SDS011;57837;52.064;113.478;2023-01-05T08:13:34;106.47;;;40.40;;
70414;SDS011;57837;52.064;113.478;2023-01-05T08:16:55;63.63;;;27.75;;
70414;SDS011;57837;52.064;113.478;2023-01-05T08:19:59;96.70;;;44.08;;
70414;SDS011;57837;52.064;113.478;2023-01-05T08:23:02;66.60;;;36.80;;
70414;SDS011;57837;52.064;113.478;2023-01-05T08:26:07;84.07;;;34.92;;
70414;SDS011;57837;52.064;113.478;2023-01-05T08:29:14;104.35;;;41.92;;
70414;SDS011;57837;52.064;113.478;2023-01-05T08:32:18;53.07;;;32.60;;
70414;SDS011;57837;52.064;113.478;2023-01-05T08:35:21;74.05;;;36.20;;
70414;SDS011;57837;52.064;113.478;2023-01-05T08:41:50;44.78;;;19.52;;
70414;SDS011;57837;52.064;113.478;2023-01-05T08:45:02;51.13;;;29.08;;
70414;SDS011;57837;52.064;113.478;2023-01-05T08:48:06;140.02;;;60.63;;
70414;SDS011;57837;52.064;113.478;2023-01-05T08:51:11;90.40;;;45.17;;
70414;SDS011;57837;52.064;113.478;2023-01-05T08:54:15;170.20;;;72.40;;
70414;SDS011;57837;52.064;113.478;2023-01-05T08:57:37;180.80;;;77.47;;
70414;SDS011;57837;52.064;113.478;2023-01-05T09:00:40;158.75;;;64.07;;
70414;SDS011;57837;52.064;113.478;2023-01-05T09:07:07;49.30;;;33.10;;
70414;SDS011;57837;52.064;113.478;2023-01-05T09:10:29;40.17;;;29.38;;
70414;SDS011;57837;52.064;113.478;2023-01-05T09:13:32;54.47;;;17.38;;
70414;SDS011;57837;52.064;113.478;2023-01-05T09:16:36;42.92;;;31.58;;
70414;SDS011;57837;52.064;113.478;2023-01-05T09:19:59;22.85;;;19.58;;
70414;SDS011;57837;52.064;113.478;2023-01-05T09:23:04;64.65;;;34.70;;
70414;SDS011;57837;52.064;113.478;2023-01-05T09:26:26;87.80;;;42.17;;
70414;SDS011;57837;52.064;113.478;2023-01-05T09:29:30;58.25;;;29.27;;
70414;SDS011;57837;52.064;113.478;2023-01-05T09:32:35;34.85;;;27.50;;
70414;SDS011;57837;52.064;113.478;2023-01-05T09:35:57;70.53;;;40.97;;
70414;SDS011;57837;52.064;113.478;2023-01-05T09:39:00;95.97;;;47.58;;
70414;SDS011;57837;52.064;113.478;2023-01-05T09:45:32;180.25;;;68.97;;
70414;SDS011;57837;52.064;113.478;2023-01-05T09:48:37;44.30;;;24.90;;
70414;SDS011;57837;52.064;113.478;2023-01-05T09:51:43;52.08;;;30.58;;
70414;SDS011;57837;52.064;113.478;2023-01-05T09:58:38;176.77;;;69.57;;
70414;SDS011;57837;52.064;113.478;2023-01-05T10:01:44;135.23;;;52.47;;
70414;SDS011;57837;52.064;113.478;2023-01-05T10:05:08;28.38;;;16.15;;
70414;SDS011;57837;52.064;113.478;2023-01-05T10:08:34;97.53;;;39.33;;
70414;SDS011;57837;52.064;113.478;2023-01-05T10:15:42;41.60;;;21.63;;
70414;SDS011;57837;52.064;113.478;2023-01-05T10:22:37;52.55;;;25.42;;
70414;SDS011;57837;52.064;113.478;2023-01-05T10:25:52;26.00;;;17.92;;
70414;SDS011;57837;52.064;113.478;2023-01-05T10:29:00;23.67;;;19.08;;
70414;SDS011;57837;52.064;113.478;2023-01-05T10:32:33;51.17;;;22.73;;
70414;SDS011;57837;52.064;113.478;2023-01-05T10:36:03;33.42;;;14.13;;
70414;SDS011;57837;52.064;113.478;2023-01-05T10:45:39;52.88;;;22.83;;
70414;SDS011;57837;52.064;113.478;2023-01-05T10:52:33;91.85;;;44.83;;
70414;SDS011;57837;52.064;113.478;2023-01-05T10:56:00;76.22;;;41.83;;
70414;SDS011;57837;52.064;113.478;2023-01-05T10:59:08;80.20;;;38.35;;
70414;SDS011;57837;52.064;113.478;2023-01-05T11:02:14;50.20;;;31.20;;
70414;SDS011;57837;52.064;113.478;2023-01-05T11:09:03;42.58;;;26.02;;
70414;SDS011;57837;52.064;113.478;2023-01-05T11:12:19;141.15;;;67.45;;
70414;SDS011;57837;52.064;113.478;2023-01-05T11:15:50;45.57;;;22.53;;
70414;SDS011;57837;52.064;113.478;2023-01-05T11:19:17;68.68;;;34.00;;
70414;SDS011;57837;52.064;113.478;2023-01-05T11:22:28;40.35;;;31.48;;
70414;SDS011;57837;52.064;113.478;2023-01-05T11:25:45;45.70;;;31.15;;
70414;SDS011;57837;52.064;113.478;2023-01-05T11:29:31;28.13;;;23.70;;
70414;SDS011;57837;52.064;113.478;2023-01-05T11:32:16;49.42;;;22.15;;
70414;SDS011;57837;52.064;113.478;2023-01-05T11:35:31;42.60;;;21.45;;
70414;SDS011;57837;52.064;113.478;2023-01-05T11:38:38;28.23;;;16.23;;
70414;SDS011;57837;52.064;113.478;2023-01-05T11:41:42;55.40;;;31.35;;
70414;SDS011;57837;52.064;113.478;2023-01-05T11:44:47;53.33;;;35.35;;
70414;SDS011;57837;52.064;113.478;2023-01-05T11:48:02;46.30;;;26.27;;
70414;SDS011;57837;52.064;113.478;2023-01-05T11:51:16;53.28;;;27.75;;
70414;SDS011;57837;52.064;113.478;2023-01-05T11:54:41;112.75;;;53.80;;
70414;SDS011;57837;52.064;113.478;2023-01-05T11:57:47;89.55;;;43.67;;
70414;SDS011;57837;52.064;113.478;2023-01-05T12:01:11;63.53;;;40.72;;
70414;SDS011;57837;52.064;113.478;2023-01-05T12:04:41;67.43;;;28.60;;
70414;SDS011;57837;52.064;113.478;2023-01-05T12:07:58;82.30;;;41.28;;
70414;SDS011;57837;52.064;113.478;2023-01-05T12:14:35;108.30;;;53.92;;
70414;SDS011;57837;52.064;113.478;2023-01-05T12:48:54;113.90;;;59.70;;
70414;SDS011;57837;52.064;113.478;2023-01-05T12:55:30;133.23;;;72.53;;
70414;SDS011;57837;52.064;113.478;2023-01-05T12:58:47;249.85;;;100.95;;
70414;SDS011;57837;52.064;113.478;2023-01-05T13:08:57;151.27;;;75.57;;
70414;SDS011;57837;52.064;113.478;2023-01-05T13:12:06;125.40;;;57.75;;
70414;SDS011;57837;52.064;113.478;2023-01-05T13:15:18;125.57;;;71.18;;
70414;SDS011;57837;52.064;113.478;2023-01-05T13:18:25;158.00;;;79.83;;
70414;SDS011;57837;52.064;113.478;2023-01-05T13:21:29;56.85;;;36.38;;
70414;SDS011;57837;52.064;113.478;2023-01-05T13:24:34;120.20;;;65.80;;
70414;SDS011;57837;52.064;113.478;2023-01-05T13:27:38;211.53;;;89.20;;
70414;SDS011;57837;52.064;113.478;2023-01-05T13:30:44;102.10;;;52.28;;
70414;SDS011;57837;52.064;113.478;2023-01-05T13:37:53;135.45;;;66.22;;
70414;SDS011;57837;52.064;113.478;2023-01-05T13:41:23;103.97;;;58.90;;
70414;SDS011;57837;52.064;113.478;2023-01-05T13:51:53;141.47;;;62.43;;
70414;SDS011;57837;52.064;113.478;2023-01-05T13:55:00;116.43;;;53.88;;
70414;SDS011;57837;52.064;113.478;2023-01-05T13:58:13;109.18;;;55.25;;
70414;SDS011;57837;52.064;113.478;2023-01-05T14:02:02;195.10;;;87.53;;
70414;SDS011;57837;52.064;113.478;2023-01-05T14:05:27;57.80;;;32.67;;
70414;SDS011;57837;52.064;113.478;2023-01-05T14:08:38;100.95;;;53.50;;
70414;SDS011;57837;52.064;113.478;2023-01-05T14:18:50;92.53;;;47.60;;
70414;SDS011;57837;52.064;113.478;2023-01-05T14:28:42;105.47;;;48.22;;
70414;SDS011;57837;52.064;113.478;2023-01-05T14:31:48;96.88;;;53.85;;
70414;SDS011;57837;52.064;113.478;2023-01-05T14:41:26;184.30;;;86.88;;
70414;SDS011;57837;52.064;113.478;2023-01-05T14:45:04;268.58;;;102.13;;
70414;SDS011;57837;52.064;113.478;2023-01-05T14:51:39;205.82;;;92.70;;
70414;SDS011;57837;52.064;113.478;2023-01-05T14:59:13;241.40;;;106.17;;
70414;SDS011;57837;52.064;113.478;2023-01-05T15:02:13;288.70;;;120.65;;
70414;SDS011;57837;52.064;113.478;2023-01-05T15:05:22;174.50;;;96.68;;
70414;SDS011;57837;52.064;113.478;2023-01-05T15:12:27;287.90;;;122.30;;
70414;SDS011;57837;52.064;113.478;2023-01-05T15:16:15;218.02;;;116.30;;
70414;SDS011;57837;52.064;113.478;2023-01-05T15:32:56;193.40;;;82.87;;
70414;SDS011;57837;52.064;113.478;2023-01-05T15:36:17;76.05;;;41.33;;
70414;SDS011;57837;52.064;113.478;2023-01-05T15:39:56;116.47;;;59.72;;
70414;SDS011;57837;52.064;113.478;2023-01-05T15:43:01;129.07;;;57.17;;
70414;SDS011;57837;52.064;113.478;2023-01-05T15:46:06;233.85;;;109.20;;
70414;SDS011;57837;52.064;113.478;2023-01-05T15:49:21;438.85;;;179.30;;
70414;SDS011;57837;52.064;113.478;2023-01-05T15:52:35;167.40;;;93.45;;
70414;SDS011;57837;52.064;113.478;2023-01-05T15:55:42;398.92;;;172.13;;
70414;SDS011;57837;52.064;113.478;2023-01-05T15:58:48;203.15;;;107.18;;
70414;SDS011;57837;52.064;113.478;2023-01-05T16:01:52;116.75;;;64.15;;
70414;SDS011;57837;52.064;113.478;2023-01-05T16:05:09;384.87;;;157.57;;
70414;SDS011;57837;52.064;113.478;2023-01-05T16:08:23;372.83;;;148.95;;
70414;SDS011;57837;52.064;113.478;2023-01-05T16:11:32;264.38;;;111.07;;
70414;SDS011;57837;52.064;113.478;2023-01-05T16:14:42;272.27;;;107.93;;
70414;SDS011;57837;52.064;113.478;2023-01-05T16:18:08;273.88;;;119.43;;
70414;SDS011;57837;52.064;113.478;2023-01-05T16:21:29;294.92;;;127.05;;
70414;SDS011;57837;52.064;113.478;2023-01-05T16:27:59;200.02;;;93.00;;
70414;SDS011;57837;52.064;113.478;2023-01-05T16:31:13;271.17;;;135.68;;
70414;SDS011;57837;52.064;113.478;2023-01-05T16:34:41;203.02;;;80.32;;
70414;SDS011;57837;52.064;113.478;2023-01-05T16:37:44;176.97;;;99.73;;
70414;SDS011;57837;52.064;113.478;2023-01-05T16:41:04;287.63;;;130.13;;
70414;SDS011;57837;52.064;113.478;2023-01-05T16:44:28;416.90;;;180.95;;
70414;SDS011;57837;52.064;113.478;2023-01-05T16:47:35;375.80;;;135.63;;
70414;SDS011;57837;52.064;113.478;2023-01-05T16:53:56;145.38;;;81.97;;
70414;SDS011;57837;52.064;113.478;2023-01-05T16:57:28;230.45;;;90.95;;
70414;SDS011;57837;52.064;113.478;2023-01-05T17:00:36;185.75;;;87.18;;
70414;SDS011;57837;52.064;113.478;2023-01-05T17:03:41;222.00;;;92.95;;
70414;SDS011;57837;52.064;113.478;2023-01-05T17:06:46;221.18;;;94.60;;
70414;SDS011;57837;52.064;113.478;2023-01-05T17:10:13;140.00;;;69.37;;
70414;SDS011;57837;52.064;113.478;2023-01-05T17:13:27;141.18;;;53.97;;
70414;SDS011;57837;52.064;113.478;2023-01-05T17:16:54;184.02;;;71.10;;
70414;SDS011;57837;52.064;113.478;2023-01-05T17:19:57;165.73;;;68.00;;
70414;SDS011;57837;52.064;113.478;2023-01-05T17:27:00;82.80;;;44.22;;
70414;SDS011;57837;52.064;113.478;2023-01-05T17:30:05;183.27;;;91.78;;
70414;SDS011;57837;52.064;113.478;2023-01-05T17:33:19;276.45;;;114.40;;
70414;SDS011;57837;52.064;113.478;2023-01-05T17:36:30;189.45;;;86.03;;
70414;SDS011;57837;52.064;113.478;2023-01-05T17:39:52;196.73;;;76.93;;
70414;SDS011;57837;52.064;113.478;2023-01-05T17:42:59;171.27;;;80.63;;
70414;SDS011;57837;52.064;113.478;2023-01-05T17:46:04;164.90;;;65.28;;
70414;SDS011;57837;52.064;113.478;2023-01-05T17:49:15;146.85;;;50.80;;
70414;SDS011;57837;52.064;113.478;2023-01-05T17:52:20;135.47;;;73.87;;
70414;SDS011;57837;52.064;113.478;2023-01-05T17:55:24;156.15;;;71.80;;
70414;SDS011;57837;52.064;113.478;2023-01-05T17:58:29;156.70;;;76.50;;
70414;SDS011;57837;52.064;113.478;2023-01-05T18:01:33;180.10;;;81.55;;
70414;SDS011;57837;52.064;113.478;2023-01-05T18:04:36;138.90;;;63.40;;
70414;SDS011;57837;52.064;113.478;2023-01-05T18:07:41;156.77;;;65.22;;
70414;SDS011;57837;52.064;113.478;2023-01-05T18:10:45;135.45;;;61.95;;
70414;SDS011;57837;52.064;113.478;2023-01-05T18:13:50;90.57;;;45.87;;
70414;SDS011;57837;52.064;113.478;2023-01-05T18:16:53;217.05;;;79.45;;
70414;SDS011;57837;52.064;113.478;2023-01-05T18:20:16;134.20;;;57.08;;
70414;SDS011;57837;52.064;113.478;2023-01-05T18:23:26;307.07;;;120.13;;
70414;SDS011;57837;52.064;113.478;2023-01-05T18:26:29;249.90;;;90.47;;
70414;SDS011;57837;52.064;113.478;2023-01-05T18:29:33;237.88;;;83.30;;
70414;SDS011;57837;52.064;113.478;2023-01-05T18:32:37;156.55;;;66.30;;
70414;SDS011;57837;52.064;113.478;2023-01-05T18:35:41;233.48;;;84.18;;
70414;SDS011;57837;52.064;113.478;2023-01-05T18:38:45;137.00;;;67.78;;
70414;SDS011;57837;52.064;113.478;2023-01-05T18:41:49;208.02;;;88.05;;
70414;SDS011;57837;52.064;113.478;2023-01-05T18:44:52;279.83;;;98.70;;
70414;SDS011;57837;52.064;113.478;2023-01-05T18:47:57;104.25;;;57.72;;
70414;SDS011;57837;52.064;113.478;2023-01-05T18:51:03;147.20;;;64.13;;
70414;SDS011;57837;52.064;113.478;2023-01-05T18:54:10;143.17;;;62.87;;
70414;SDS011;57837;52.064;113.478;2023-01-05T18:57:14;166.32;;;88.25;;
70414;SDS011;57837;52.064;113.478;2023-01-05T19:00:17;198.82;;;86.18;;
70414;SDS011;57837;52.064;113.478;2023-01-05T19:03:39;127.03;;;64.10;;
70414;SDS011;57837;52.064;113.478;2023-01-05T19:06:43;183.95;;;90.90;;
70414;SDS011;57837;52.064;113.478;2023-01-05T19:09:47;179.48;;;75.60;;
70414;SDS011;57837;52.064;113.478;2023-01-05T19:12:51;277.50;;;108.57;;
70414;SDS011;57837;52.064;113.478;2023-01-05T19:15:58;163.17;;;63.07;;
70414;SDS011;57837;52.064;113.478;2023-01-05T19:19:05;164.57;;;68.35;;
70414;SDS011;57837;52.064;113.478;2023-01-05T19:22:10;218.73;;;84.97;;
70414;SDS011;57837;52.064;113.478;2023-01-05T19:25:14;195.07;;;75.37;;
70414;SDS011;57837;52.064;113.478;2023-01-05T19:28:17;126.32;;;52.67;;
70414;SDS011;57837;52.064;113.478;2023-01-05T19:31:21;105.93;;;47.20;;
70414;SDS011;57837;52.064;113.478;2023-01-05T19:34:25;124.05;;;56.60;;
70414;SDS011;57837;52.064;113.478;2023-01-05T19:37:29;170.20;;;85.30;;
70414;SDS011;57837;52.064;113.478;2023-01-05T19:40:36;83.00;;;47.60;;
70414;SDS011;57837;52.064;113.478;2023-01-05T19:43:39;94.43;;;47.33;;
70414;SDS011;57837;52.064;113.478;2023-01-05T19:46:43;224.50;;;90.57;;
70414;SDS011;57837;52.064;113.478;2023-01-05T19:49:47;141.00;;;67.25;;
70414;SDS011;57837;52.064;113.478;2023-01-05T19:52:49;92.30;;;56.22;;
70414;SDS011;57837;52.064;113.478;2023-01-05T19:55:53;89.97;;;58.00;;
70414;SDS011;57837;52.064;113.478;2023-01-05T19:59:06;92.75;;;56.38;;
70414;SDS011;57837;52.064;113.478;2023-01-05T20:05:36;84.78;;;43.03;;
70414;SDS011;57837;52.064;113.478;2023-01-05T20:08:40;212.65;;;78.60;;
70414;SDS011;57837;52.064;113.478;2023-01-05T20:11:45;320.48;;;126.97;;
70414;SDS011;57837;52.064;113.478;2023-01-05T20:14:51;274.95;;;113.22;;
70414;SDS011;57837;52.064;113.478;2023-01-05T20:17:55;154.80;;;75.93;;
70414;SDS011;57837;52.064;113.478;2023-01-05T20:20:59;164.43;;;68.45;;
70414;SDS011;57837;52.064;113.478;2023-01-05T20:24:06;58.33;;;31.48;;
70414;SDS011;57837;52.064;113.478;2023-01-05T20:27:13;69.67;;;32.77;;
70414;SDS011;57837;52.064;113.478;2023-01-05T20:30:18;134.18;;;63.28;;
70414;SDS011;57837;52.064;113.478;2023-01-05T20:33:22;88.07;;;44.20;;
70414;SDS011;57837;52.064;113.478;2023-01-05T20:36:26;148.77;;;58.63;;
70414;SDS011;57837;52.064;113.478;2023-01-05T20:42:53;216.93;;;88.75;;
70414;SDS011;57837;52.064;113.478;2023-01-05T20:45:57;156.90;;;81.30;;
70414;SDS011;57837;52.064;113.478;2023-01-05T20:49:00;252.93;;;98.23;;
70414;SDS011;57837;52.064;113.478;2023-01-05T20:52:06;202.88;;;87.80;;
70414;SDS011;57837;52.064;113.478;2023-01-05T20:55:11;99.63;;;56.38;;
70414;SDS011;57837;52.064;113.478;2023-01-05T21:01:36;75.53;;;35.92;;
70414;SDS011;57837;52.064;113.478;2023-01-05T21:04:41;108.00;;;48.35;;
70414;SDS011;57837;52.064;113.478;2023-01-05T21:07:44;162.18;;;67.50;;
70414;SDS011;57837;52.064;113.478;2023-01-05T21:10:51;122.32;;;46.75;;
70414;SDS011;57837;52.064;113.478;2023-01-05T21:13:56;109.22;;;43.40;;
70414;SDS011;57837;52.064;113.478;2023-01-05T21:17:01;195.38;;;73.55;;
70414;SDS011;57837;52.064;113.478;2023-01-05T21:20:04;152.07;;;67.23;;
70414;SDS011;57837;52.064;113.478;2023-01-05T21:23:09;241.35;;;103.78;;
70414;SDS011;57837;52.064;113.478;2023-01-05T21:26:12;135.25;;;73.90;;
70414;SDS011;57837;52.064;113.478;2023-01-05T21:29:17;204.50;;;84.83;;
70414;SDS011;57837;52.064;113.478;2023-01-05T21:32:23;156.43;;;63.22;;
70414;SDS011;57837;52.064;113.478;2023-01-05T21:35:51;115.70;;;54.72;;